createdAt,value
2016-12-08T00:00:13.114Z,98.29
2016-12-08T00:00:29.788Z,98.1
2016-12-08T00:00:46.451Z,98.49
2016-12-08T00:01:03.139Z,98.39
2016-12-08T00:01:19.847Z,98.68
2016-12-08T00:01:36.516Z,98.49
2016-12-08T00:01:53.178Z,98.2
2016-12-08T00:02:09.858Z,98.39
2016-12-08T00:02:26.543Z,98.58
2016-12-08T00:02:43.243Z,98.58
2016-12-08T00:02:59.925Z,98.39
2016-12-08T00:03:16.612Z,98.39
2016-12-08T00:03:33.287Z,98.58
2016-12-08T00:03:49.952Z,98.1
2016-12-08T00:04:06.613Z,98.73
2016-12-08T00:04:23.262Z,98.49
2016-12-08T00:04:40.409Z,98.68
2016-12-08T00:04:57.071Z,98.34
2016-12-08T00:05:13.714Z,98.44
2016-12-08T00:05:30.377Z,98.82
2016-12-08T00:05:47.060Z,98.44
2016-12-08T00:06:03.719Z,98.34
2016-12-08T00:06:20.384Z,98.63
2016-12-08T00:06:37.061Z,98.44
2016-12-08T00:06:53.733Z,98.92
2016-12-08T00:07:10.394Z,98.34
2016-12-08T00:07:27.063Z,98.63
2016-12-08T00:07:43.731Z,98.44
2016-12-08T00:08:00.400Z,98.34
2016-12-08T00:08:17.077Z,98.25
2016-12-08T00:08:33.753Z,98.54
2016-12-08T00:08:50.442Z,98.44
2016-12-08T00:09:07.099Z,98.73
2016-12-08T00:09:23.779Z,98.63
2016-12-08T00:09:40.461Z,98.82
2016-12-08T00:09:57.138Z,98.63
2016-12-08T00:10:14.312Z,98.25
2016-12-08T00:10:30.989Z,98.44
2016-12-08T00:10:47.661Z,98.54
2016-12-08T00:11:04.337Z,98.82
2016-12-08T00:11:21.021Z,98.82
2016-12-08T00:11:37.683Z,98.73
2016-12-08T00:11:54.346Z,98.92
2016-12-08T00:12:11.028Z,98.82
2016-12-08T00:12:27.705Z,98.44
2016-12-08T00:12:44.403Z,99.07
2016-12-08T00:13:01.081Z,98.68
2016-12-08T00:13:17.739Z,98.92
2016-12-08T00:13:34.390Z,99.07
2016-12-08T00:13:51.045Z,99.07
2016-12-08T00:14:07.735Z,98.92
2016-12-08T00:14:24.402Z,98.97
2016-12-08T00:14:41.082Z,98.97
2016-12-08T00:14:58.300Z,98.97
2016-12-08T00:15:14.954Z,99.11
2016-12-08T00:15:31.654Z,98.97
2016-12-08T00:15:48.322Z,99.6
2016-12-08T00:16:05.004Z,99.11
2016-12-08T00:16:21.654Z,99.16
2016-12-08T00:16:38.326Z,99.4
2016-12-08T00:16:55.004Z,99.35
2016-12-08T00:17:11.649Z,98.97
2016-12-08T00:17:28.324Z,99.35
2016-12-08T00:17:45.012Z,99.4
2016-12-08T00:18:01.682Z,99.4
2016-12-08T00:18:18.364Z,99.26
2016-12-08T00:18:35.049Z,99.5
2016-12-08T00:18:51.733Z,99.84
2016-12-08T00:19:08.429Z,99.55
2016-12-08T00:19:25.079Z,98.97
2016-12-08T00:19:41.757Z,99.21
2016-12-08T00:19:58.449Z,99.45
2016-12-08T00:20:15.122Z,99.4
2016-12-08T00:20:31.806Z,99.35
2016-12-08T00:20:48.492Z,99.55
2016-12-08T00:21:05.190Z,99.88
2016-12-08T00:21:21.907Z,99.79
2016-12-08T00:21:38.561Z,98.97
2016-12-08T00:21:55.233Z,99.35
2016-12-08T00:22:11.898Z,99.16
2016-12-08T00:22:28.597Z,99.16
2016-12-08T00:22:45.267Z,98.97
2016-12-08T00:23:01.930Z,99.45
2016-12-08T00:23:18.591Z,99.69
2016-12-08T00:23:35.271Z,99.35
2016-12-08T00:23:51.943Z,99.45
2016-12-08T00:24:08.608Z,99.45
2016-12-08T00:24:25.304Z,99.45
2016-12-08T00:24:41.968Z,99.35
2016-12-08T00:24:58.634Z,99.45
2016-12-08T00:25:15.351Z,99.45
2016-12-08T00:25:32.040Z,99.64
2016-12-08T00:25:48.720Z,99.55
2016-12-08T00:26:05.463Z,99.45
2016-12-08T00:26:22.161Z,99.55
2016-12-08T00:26:38.828Z,99.64
2016-12-08T00:26:55.550Z,99.26
2016-12-08T00:27:12.217Z,99.26
2016-12-08T00:27:28.919Z,99.07
2016-12-08T00:27:45.590Z,99.35
2016-12-08T00:28:02.264Z,99.45
2016-12-08T00:28:18.947Z,98.87
2016-12-08T00:28:35.645Z,98.97
2016-12-08T00:28:52.324Z,99.07
2016-12-08T00:29:09.023Z,98.97
2016-12-08T00:29:25.756Z,98.97
2016-12-08T00:29:42.468Z,98.97
2016-12-08T00:29:59.121Z,99.16
2016-12-08T00:30:16.347Z,99.07
2016-12-08T00:30:33.026Z,98.97
2016-12-08T00:30:50.242Z,99.07
2016-12-08T00:31:06.936Z,99.07
2016-12-08T00:31:23.658Z,99.16
2016-12-08T00:31:40.438Z,98.97
2016-12-08T00:31:57.146Z,98.97
2016-12-08T00:32:13.824Z,99.45
2016-12-08T00:32:30.551Z,98.97
2016-12-08T00:32:47.233Z,98.97
2016-12-08T00:33:03.922Z,99.45
2016-12-08T00:33:20.608Z,98.97
2016-12-08T00:33:37.332Z,99.16
2016-12-08T00:33:54.010Z,98.97
2016-12-08T00:34:10.703Z,99.07
2016-12-08T00:34:27.415Z,98.87
2016-12-08T00:34:44.103Z,98.97
2016-12-08T00:35:00.800Z,98.87
2016-12-08T00:35:17.548Z,98.97
2016-12-08T00:35:34.271Z,98.87
2016-12-08T00:35:50.957Z,99.07
2016-12-08T00:36:08.165Z,99.26
2016-12-08T00:36:24.833Z,99.07
2016-12-08T00:36:41.505Z,99.07
2016-12-08T00:36:58.185Z,99.45
2016-12-08T00:37:14.862Z,99.35
2016-12-08T00:37:31.579Z,98.87
2016-12-08T00:37:48.303Z,99.55
2016-12-08T00:38:04.991Z,99.45
2016-12-08T00:38:21.688Z,99.55
2016-12-08T00:38:38.368Z,99.45
2016-12-08T00:38:55.045Z,98.97
2016-12-08T00:39:11.750Z,98.97
2016-12-08T00:39:28.511Z,99.45
2016-12-08T00:39:45.209Z,99.35
2016-12-08T00:40:02.427Z,99.35
2016-12-08T00:40:19.117Z,99.55
2016-12-08T00:40:35.804Z,99.45
2016-12-08T00:40:52.515Z,99.35
2016-12-08T00:41:09.206Z,99.07
2016-12-08T00:41:25.874Z,98.87
2016-12-08T00:41:42.570Z,99.45
2016-12-08T00:41:59.271Z,98.97
2016-12-08T00:42:15.922Z,98.87
2016-12-08T00:42:32.614Z,98.97
2016-12-08T00:42:49.319Z,99.07
2016-12-08T00:43:06.026Z,99.26
2016-12-08T00:43:22.711Z,99.55
2016-12-08T00:43:39.384Z,98.97
2016-12-08T00:43:56.064Z,98.87
2016-12-08T00:44:12.755Z,98.97
2016-12-08T00:44:29.441Z,99.07
2016-12-08T00:44:46.124Z,99.55
2016-12-08T00:45:02.813Z,99.07
2016-12-08T00:45:19.501Z,99.26
2016-12-08T00:45:36.165Z,98.77
2016-12-08T00:45:52.855Z,98.87
2016-12-08T00:46:09.524Z,98.87
2016-12-08T00:46:26.262Z,98.97
2016-12-08T00:46:42.937Z,98.87
2016-12-08T00:47:00.118Z,99.07
2016-12-08T00:47:16.788Z,99.45
2016-12-08T00:47:33.500Z,99.26
2016-12-08T00:47:50.234Z,99.35
2016-12-08T00:48:06.916Z,98.97
2016-12-08T00:48:23.630Z,98.87
2016-12-08T00:48:40.333Z,99.45
2016-12-08T00:48:56.997Z,99.64
2016-12-08T00:49:13.707Z,99.84
2016-12-08T00:49:30.395Z,99.84
2016-12-08T00:49:47.106Z,99.35
2016-12-08T00:50:03.844Z,99.99
2016-12-08T00:50:20.541Z,99.84
2016-12-08T00:50:37.254Z,99.35
2016-12-08T00:50:53.934Z,99.55
2016-12-08T00:51:10.610Z,99.84
2016-12-08T00:51:27.302Z,99.84
2016-12-08T00:51:43.978Z,99.93
2016-12-08T00:52:00.683Z,99.79
2016-12-08T00:52:17.367Z,99.99
2016-12-08T00:52:34.297Z,99.99
2016-12-08T00:52:51.283Z,99.99
2016-12-08T00:53:08.000Z,99.99
2016-12-08T00:53:24.694Z,99.99
2016-12-08T00:53:41.386Z,99.99
2016-12-08T00:53:58.051Z,99.99
2016-12-08T00:54:14.769Z,99.99
2016-12-08T00:54:31.471Z,99.99
2016-12-08T00:54:48.180Z,99.99
2016-12-08T00:55:05.415Z,99.99
2016-12-08T00:55:22.618Z,99.99
2016-12-08T00:55:39.316Z,99.99
2016-12-08T00:55:56.000Z,99.99
2016-12-08T00:56:12.723Z,99.99
2016-12-08T00:56:29.415Z,99.99
2016-12-08T00:56:46.114Z,99.99
2016-12-08T00:57:02.807Z,99.99
2016-12-08T00:57:19.568Z,99.99
2016-12-08T00:57:36.260Z,99.99
2016-12-08T00:57:53.477Z,99.99
2016-12-08T00:58:10.186Z,99.99
2016-12-08T00:58:26.850Z,99.99
2016-12-08T00:58:43.510Z,99.99
2016-12-08T00:59:00.213Z,99.99
2016-12-08T00:59:16.906Z,99.99
2016-12-08T00:59:33.571Z,99.99
2016-12-08T00:59:50.242Z,99.99
2016-12-08T01:00:06.935Z,99.99
2016-12-08T01:00:23.630Z,99.99
2016-12-08T01:00:40.318Z,99.99
2016-12-08T01:00:57.002Z,99.99
2016-12-08T01:01:13.669Z,99.99
2016-12-08T01:01:30.341Z,99.99
2016-12-08T01:01:47.071Z,99.99
2016-12-08T01:02:03.738Z,99.99
2016-12-08T01:02:20.419Z,99.99
2016-12-08T01:02:37.120Z,99.99
2016-12-08T01:02:53.816Z,99.99
2016-12-08T01:03:10.461Z,99.99
2016-12-08T01:03:27.148Z,99.99
2016-12-08T01:03:44.340Z,99.99
2016-12-08T01:04:01.015Z,99.99
2016-12-08T01:04:17.676Z,99.99
2016-12-08T01:04:34.375Z,99.99
2016-12-08T01:04:51.051Z,99.99
2016-12-08T01:05:07.735Z,99.99
2016-12-08T01:05:24.428Z,99.99
2016-12-08T01:05:41.127Z,99.99
2016-12-08T01:05:57.822Z,99.99
2016-12-08T01:06:15.009Z,99.99
2016-12-08T01:06:31.704Z,99.99
2016-12-08T01:06:48.891Z,99.99
2016-12-08T01:07:05.571Z,99.99
2016-12-08T01:07:22.772Z,99.99
2016-12-08T01:07:39.459Z,99.99
2016-12-08T01:07:56.147Z,99.99
2016-12-08T01:08:12.844Z,99.99
2016-12-08T01:08:29.542Z,99.99
2016-12-08T01:08:46.247Z,99.99
2016-12-08T01:09:02.917Z,99.99
2016-12-08T01:09:19.610Z,99.99
2016-12-08T01:09:36.310Z,99.99
2016-12-08T01:09:52.989Z,99.99
2016-12-08T01:10:10.203Z,99.99
2016-12-08T01:10:26.870Z,99.99
2016-12-08T01:10:43.542Z,99.99
2016-12-08T01:11:00.245Z,99.99
2016-12-08T01:11:16.930Z,99.99
2016-12-08T01:11:33.651Z,99.99
2016-12-08T01:11:50.359Z,99.99
2016-12-08T01:12:07.101Z,99.99
2016-12-08T01:12:24.235Z,99.99
2016-12-08T01:12:41.011Z,99.99
2016-12-08T01:12:57.696Z,99.99
2016-12-08T01:13:14.369Z,99.99
2016-12-08T01:13:31.074Z,99.99
2016-12-08T01:13:47.793Z,99.99
2016-12-08T01:14:04.516Z,99.99
2016-12-08T01:14:21.237Z,99.99
2016-12-08T01:14:37.937Z,99.99
2016-12-08T01:14:54.635Z,99.99
2016-12-08T01:15:11.331Z,99.99
2016-12-08T01:15:28.038Z,99.99
2016-12-08T01:15:44.738Z,99.99
2016-12-08T01:16:01.447Z,99.99
2016-12-08T01:16:18.186Z,99.99
2016-12-08T01:16:34.872Z,99.99
2016-12-08T01:16:51.566Z,99.99
2016-12-08T01:17:08.277Z,99.99
2016-12-08T01:17:25.515Z,99.99
2016-12-08T01:17:42.207Z,99.99
2016-12-08T01:17:58.895Z,99.99
2016-12-08T01:18:15.581Z,99.99
2016-12-08T01:18:32.337Z,99.99
2016-12-08T01:18:49.018Z,99.99
2016-12-08T01:19:05.698Z,99.99
2016-12-08T01:19:22.399Z,99.99
2016-12-08T01:19:39.094Z,99.99
2016-12-08T01:19:55.784Z,99.99
2016-12-08T01:20:13.004Z,99.84
2016-12-08T01:20:29.691Z,99.84
2016-12-08T01:20:46.372Z,99.84
2016-12-08T01:21:03.067Z,99.99
2016-12-08T01:21:19.730Z,99.99
2016-12-08T01:21:36.427Z,99.99
2016-12-08T01:21:53.129Z,99.93
2016-12-08T01:22:09.779Z,99.99
2016-12-08T01:22:26.471Z,99.99
2016-12-08T01:22:43.165Z,99.99
2016-12-08T01:22:59.860Z,99.99
2016-12-08T01:23:16.540Z,99.74
2016-12-08T01:23:33.249Z,99.93
2016-12-08T01:23:49.930Z,99.99
2016-12-08T01:24:06.580Z,99.93
2016-12-08T01:24:23.259Z,99.99
2016-12-08T01:24:39.958Z,99.99
2016-12-08T01:24:56.665Z,99.69
2016-12-08T01:25:13.352Z,99.99
2016-12-08T01:25:30.050Z,99.79
2016-12-08T01:25:46.764Z,99.99
2016-12-08T01:26:03.433Z,99.79
2016-12-08T01:26:20.107Z,99.93
2016-12-08T01:26:37.296Z,99.84
2016-12-08T01:26:53.990Z,99.99
2016-12-08T01:27:10.737Z,99.74
2016-12-08T01:27:27.427Z,99.99
2016-12-08T01:27:44.131Z,99.99
2016-12-08T01:28:00.828Z,99.88
2016-12-08T01:28:17.560Z,99.88
2016-12-08T01:28:34.327Z,99.99
2016-12-08T01:28:51.032Z,99.99
2016-12-08T01:29:07.743Z,99.98
2016-12-08T01:29:24.398Z,99.98
2016-12-08T01:29:41.088Z,99.99
2016-12-08T01:29:57.774Z,99.88
2016-12-08T01:30:14.476Z,99.88
2016-12-08T01:30:31.154Z,99.88
2016-12-08T01:30:47.809Z,99.79
2016-12-08T01:31:04.525Z,99.98
2016-12-08T01:31:21.248Z,99.99
2016-12-08T01:31:37.941Z,99.99
2016-12-08T01:31:54.625Z,99.69
2016-12-08T01:32:11.292Z,99.99
2016-12-08T01:32:27.980Z,99.98
2016-12-08T01:32:44.658Z,99.79
2016-12-08T01:33:01.343Z,99.5
2016-12-08T01:33:18.000Z,99.5
2016-12-08T01:33:35.193Z,99.5
2016-12-08T01:33:51.875Z,99.59
2016-12-08T01:34:08.541Z,99.4
2016-12-08T01:34:25.220Z,99.79
2016-12-08T01:34:41.915Z,99.69
2016-12-08T01:34:58.587Z,99.21
2016-12-08T01:35:15.283Z,99.59
2016-12-08T01:35:31.953Z,98.92
2016-12-08T01:35:48.666Z,99.11
2016-12-08T01:36:05.332Z,99.11
2016-12-08T01:36:22.032Z,99.02
2016-12-08T01:36:38.708Z,99.3
2016-12-08T01:36:55.509Z,99.11
2016-12-08T01:37:12.237Z,99.21
2016-12-08T01:37:29.131Z,99.02
2016-12-08T01:37:45.854Z,99.11
2016-12-08T01:38:02.601Z,99.3
2016-12-08T01:38:19.334Z,99.21
2016-12-08T01:38:36.106Z,99.11
2016-12-08T01:38:52.778Z,99.02
2016-12-08T01:39:09.488Z,99.21
2016-12-08T01:39:26.223Z,99.02
2016-12-08T01:39:42.918Z,99.21
2016-12-08T01:39:59.630Z,99.02
2016-12-08T01:40:16.848Z,99.3
2016-12-08T01:40:33.569Z,99.3
2016-12-08T01:40:50.264Z,99.11
2016-12-08T01:41:06.956Z,99.21
2016-12-08T01:41:23.640Z,99.21
2016-12-08T01:41:40.334Z,99.21
2016-12-08T01:41:57.028Z,98.92
2016-12-08T01:42:14.230Z,99.21
2016-12-08T01:42:30.916Z,99.11
2016-12-08T01:42:47.603Z,99.11
2016-12-08T01:43:04.292Z,99.21
2016-12-08T01:43:21.003Z,99.3
2016-12-08T01:43:37.663Z,99.3
2016-12-08T01:43:54.367Z,99.11
2016-12-08T01:44:11.067Z,99.3
2016-12-08T01:44:27.742Z,99.21
2016-12-08T01:44:44.455Z,99.4
2016-12-08T01:45:01.163Z,99.11
2016-12-08T01:45:17.827Z,99.21
2016-12-08T01:45:34.517Z,99.21
2016-12-08T01:45:51.244Z,99.21
2016-12-08T01:46:07.949Z,99.5
2016-12-08T01:46:24.651Z,99.59
2016-12-08T01:46:41.391Z,99.4
2016-12-08T01:46:58.099Z,99.21
2016-12-08T01:47:14.800Z,99.21
2016-12-08T01:47:31.494Z,99.5
2016-12-08T01:47:48.192Z,98.82
2016-12-08T01:48:04.868Z,98.82
2016-12-08T01:48:22.271Z,99.59
2016-12-08T01:48:38.980Z,99.4
2016-12-08T01:48:55.658Z,99.4
2016-12-08T01:49:12.351Z,99.4
2016-12-08T01:49:29.601Z,99.4
2016-12-08T01:49:46.273Z,99.02
2016-12-08T01:50:02.943Z,98.82
2016-12-08T01:50:19.632Z,98.92
2016-12-08T01:50:36.338Z,99.11
2016-12-08T01:50:53.027Z,99.4
2016-12-08T01:51:09.708Z,98.92
2016-12-08T01:51:26.358Z,98.82
2016-12-08T01:51:43.045Z,98.92
2016-12-08T01:51:59.751Z,99.11
2016-12-08T01:52:16.442Z,99.02
2016-12-08T01:52:33.125Z,99.02
2016-12-08T01:52:49.824Z,99.21
2016-12-08T01:53:06.513Z,98.92
2016-12-08T01:53:23.196Z,99.21
2016-12-08T01:53:39.868Z,98.82
2016-12-08T01:53:56.560Z,98.82
2016-12-08T01:54:13.284Z,99.02
2016-12-08T01:54:29.956Z,98.82
2016-12-08T01:54:46.657Z,99.02
2016-12-08T01:55:03.372Z,99.4
2016-12-08T01:55:20.110Z,98.92
2016-12-08T01:55:37.383Z,99.4
2016-12-08T01:55:54.101Z,99.02
2016-12-08T01:56:10.798Z,99.21
2016-12-08T01:56:27.491Z,99.02
2016-12-08T01:56:44.178Z,99.02
2016-12-08T01:57:00.861Z,98.92
2016-12-08T01:57:17.556Z,99.4
2016-12-08T01:57:34.235Z,98.82
2016-12-08T01:57:50.916Z,98.92
2016-12-08T01:58:07.591Z,99.3
2016-12-08T01:58:24.289Z,99.5
2016-12-08T01:58:40.943Z,99.79
2016-12-08T01:58:57.623Z,99.21
2016-12-08T01:59:14.316Z,99.4
2016-12-08T01:59:30.996Z,99.4
2016-12-08T01:59:47.662Z,99.59
2016-12-08T02:00:04.368Z,99.3
2016-12-08T02:00:21.279Z,99.4
2016-12-08T02:00:37.965Z,99.21
2016-12-08T02:00:54.655Z,99.5
2016-12-08T02:01:11.331Z,99.11
2016-12-08T02:01:27.989Z,99.3
2016-12-08T02:01:44.717Z,98.82
2016-12-08T02:02:01.424Z,99.4
2016-12-08T02:02:18.092Z,99.59
2016-12-08T02:02:49.312Z,98.82
2016-12-08T02:03:05.997Z,99.02
2016-12-08T02:03:22.715Z,99.4
2016-12-08T02:03:39.411Z,99.3
2016-12-08T02:03:56.141Z,99.21
2016-12-08T02:04:13.335Z,99.11
2016-12-08T02:04:30.029Z,99.21
2016-12-08T02:04:46.709Z,98.92
2016-12-08T02:05:03.916Z,99.4
2016-12-08T02:05:20.601Z,99.5
2016-12-08T02:05:37.263Z,98.72
2016-12-08T02:05:53.940Z,99.3
2016-12-08T02:06:10.614Z,99.4
2016-12-08T02:06:27.282Z,99.02
2016-12-08T02:06:44.055Z,99.4
2016-12-08T02:07:00.724Z,99.11
2016-12-08T02:07:17.405Z,99.4
2016-12-08T02:07:34.173Z,99.21
2016-12-08T02:07:50.877Z,99.3
2016-12-08T02:08:07.574Z,99.4
2016-12-08T02:08:24.256Z,99.4
2016-12-08T02:08:41.461Z,99.4
2016-12-08T02:08:58.160Z,99.21
2016-12-08T02:09:14.867Z,99.21
2016-12-08T02:09:31.553Z,99.4
2016-12-08T02:09:48.259Z,99.3
2016-12-08T02:10:04.935Z,99.4
2016-12-08T02:10:21.613Z,99.4
2016-12-08T02:10:38.288Z,99.21
2016-12-08T02:10:54.984Z,99.5
2016-12-08T02:11:11.677Z,99.3
2016-12-08T02:11:28.355Z,99.4
2016-12-08T02:11:45.045Z,99.02
2016-12-08T02:12:01.776Z,99.35
2016-12-08T02:12:18.983Z,99.35
2016-12-08T02:12:35.644Z,99.35
2016-12-08T02:12:52.323Z,99.26
2016-12-08T02:13:09.021Z,99.5
2016-12-08T02:13:25.723Z,99.35
2016-12-08T02:13:42.414Z,99.4
2016-12-08T02:13:59.608Z,99.16
2016-12-08T02:14:16.285Z,98.92
2016-12-08T02:14:32.961Z,98.92
2016-12-08T02:14:49.624Z,98.87
2016-12-08T02:15:06.327Z,99.16
2016-12-08T02:15:23.013Z,99.35
2016-12-08T02:15:39.756Z,98.87
2016-12-08T02:15:56.453Z,98.92
2016-12-08T02:16:13.123Z,98.97
2016-12-08T02:16:29.809Z,98.68
2016-12-08T02:16:46.486Z,98.77
2016-12-08T02:17:03.180Z,98.77
2016-12-08T02:17:19.884Z,98.97
2016-12-08T02:17:36.578Z,98.87
2016-12-08T02:17:53.262Z,99.16
2016-12-08T02:18:09.935Z,98.87
2016-12-08T02:18:27.675Z,99.35
2016-12-08T02:18:44.360Z,98.87
2016-12-08T02:19:01.016Z,98.87
2016-12-08T02:19:17.756Z,98.87
2016-12-08T02:19:34.447Z,98.87
2016-12-08T02:19:51.120Z,98.97
2016-12-08T02:20:07.808Z,98.97
2016-12-08T02:20:24.512Z,98.87
2016-12-08T02:20:41.700Z,99.54
2016-12-08T02:20:58.385Z,99.26
2016-12-08T02:21:15.081Z,98.87
2016-12-08T02:21:31.768Z,98.77
2016-12-08T02:21:48.439Z,99.35
2016-12-08T02:22:05.122Z,98.77
2016-12-08T02:22:21.760Z,99.16
2016-12-08T02:22:38.434Z,98.77
2016-12-08T02:22:55.092Z,98.87
2016-12-08T02:23:11.799Z,98.77
2016-12-08T02:23:28.470Z,99.16
2016-12-08T02:23:45.668Z,98.97
2016-12-08T02:24:02.330Z,99.06
2016-12-08T02:24:19.027Z,98.87
2016-12-08T02:24:35.720Z,98.77
2016-12-08T02:24:52.393Z,98.77
2016-12-08T02:25:09.100Z,98.97
2016-12-08T02:25:25.790Z,99.16
2016-12-08T02:25:42.458Z,98.77
2016-12-08T02:25:59.160Z,98.97
2016-12-08T02:26:15.859Z,98.68
2016-12-08T02:26:32.541Z,98.68
2016-12-08T02:26:49.235Z,98.77
2016-12-08T02:27:06.397Z,98.77
2016-12-08T02:27:23.092Z,98.87
2016-12-08T02:27:39.754Z,98.87
2016-12-08T02:27:56.416Z,99.16
2016-12-08T02:28:13.107Z,98.68
2016-12-08T02:28:29.809Z,99.16
2016-12-08T02:28:46.491Z,99.02
2016-12-08T02:29:03.177Z,98.97
2016-12-08T02:29:19.880Z,99.16
2016-12-08T02:29:36.562Z,99.02
2016-12-08T02:29:53.260Z,98.87
2016-12-08T02:30:09.958Z,98.87
2016-12-08T02:30:26.633Z,98.97
2016-12-08T02:30:43.304Z,98.97
2016-12-08T02:30:59.996Z,98.97
2016-12-08T02:31:16.693Z,98.97
2016-12-08T02:31:33.387Z,98.87
2016-12-08T02:31:50.092Z,98.87
2016-12-08T02:32:07.269Z,98.82
2016-12-08T02:32:23.951Z,98.87
2016-12-08T02:32:40.646Z,98.97
2016-12-08T02:32:57.354Z,98.97
2016-12-08T02:33:14.050Z,98.97
2016-12-08T02:33:30.739Z,99.06
2016-12-08T02:33:47.926Z,98.87
2016-12-08T02:34:04.598Z,98.77
2016-12-08T02:34:21.279Z,98.97
2016-12-08T02:34:37.956Z,99.02
2016-12-08T02:34:54.626Z,99.02
2016-12-08T02:35:11.305Z,98.92
2016-12-08T02:35:27.987Z,99.02
2016-12-08T02:35:44.650Z,99.06
2016-12-08T02:36:01.339Z,98.77
2016-12-08T02:36:18.010Z,98.77
2016-12-08T02:36:34.687Z,98.87
2016-12-08T02:36:51.347Z,98.82
2016-12-08T02:37:08.031Z,98.82
2016-12-08T02:37:24.687Z,98.82
2016-12-08T02:37:41.383Z,98.82
2016-12-08T02:37:58.045Z,98.82
2016-12-08T02:38:14.770Z,99.02
2016-12-08T02:38:31.467Z,99.02
2016-12-08T02:38:48.146Z,98.82
2016-12-08T02:39:04.823Z,98.82
2016-12-08T02:39:21.497Z,99.21
2016-12-08T02:39:38.176Z,99.44
2016-12-08T02:39:54.874Z,99.4
2016-12-08T02:40:11.586Z,99.02
2016-12-08T02:40:28.259Z,99.11
2016-12-08T02:40:44.944Z,98.82
2016-12-08T02:41:01.633Z,98.82
2016-12-08T02:41:18.809Z,99.4
2016-12-08T02:41:35.487Z,99.59
2016-12-08T02:41:52.201Z,99.3
2016-12-08T02:42:08.877Z,99.5
2016-12-08T02:42:25.570Z,99.02
2016-12-08T02:42:42.254Z,99.3
2016-12-08T02:42:58.953Z,99.4
2016-12-08T02:43:15.648Z,99.21
2016-12-08T02:43:32.332Z,98.82
2016-12-08T02:43:49.009Z,99.4
2016-12-08T02:44:05.728Z,99.3
2016-12-08T02:44:22.425Z,99.69
2016-12-08T02:44:39.100Z,99.21
2016-12-08T02:44:55.775Z,99.21
2016-12-08T02:45:12.467Z,99.59
2016-12-08T02:45:29.130Z,99.5
2016-12-08T02:45:45.788Z,99.5
2016-12-08T02:46:02.452Z,99.5
2016-12-08T02:46:19.134Z,99.5
2016-12-08T02:46:36.318Z,99.5
2016-12-08T02:46:53.003Z,99.5
2016-12-08T02:47:09.682Z,99.21
2016-12-08T02:47:26.354Z,99.59
2016-12-08T02:47:43.037Z,98.92
2016-12-08T02:47:59.729Z,99.21
2016-12-08T02:48:16.439Z,99.5
2016-12-08T02:48:33.121Z,99.4
2016-12-08T02:48:49.806Z,99.5
2016-12-08T02:49:06.484Z,99.4
2016-12-08T02:49:23.167Z,99.59
2016-12-08T02:49:39.836Z,99.59
2016-12-08T02:49:56.528Z,99.02
2016-12-08T02:50:13.185Z,99.79
2016-12-08T02:50:29.870Z,99.5
2016-12-08T02:50:46.563Z,99.79
2016-12-08T02:51:03.250Z,99.5
2016-12-08T02:51:19.928Z,99.79
2016-12-08T02:51:36.628Z,99.02
2016-12-08T02:51:53.329Z,99.02
2016-12-08T02:52:10.024Z,99.59
2016-12-08T02:52:26.692Z,99.88
2016-12-08T02:52:43.369Z,99.69
2016-12-08T02:53:00.060Z,99.79
2016-12-08T02:53:16.723Z,99.5
2016-12-08T02:53:33.425Z,99.5
2016-12-08T02:53:50.124Z,99.88
2016-12-08T02:54:06.794Z,99.98
2016-12-08T02:54:23.477Z,99.99
2016-12-08T02:54:40.162Z,99.3
2016-12-08T02:54:56.852Z,99.5
2016-12-08T02:55:13.567Z,99.4
2016-12-08T02:55:30.253Z,99.5
2016-12-08T02:55:46.972Z,99.26
2016-12-08T02:56:03.652Z,99.44
2016-12-08T02:56:20.336Z,99.74
2016-12-08T02:56:37.035Z,99.5
2016-12-08T02:56:53.707Z,99.44
2016-12-08T02:57:10.397Z,99.26
2016-12-08T02:57:27.075Z,99.4
2016-12-08T02:57:43.776Z,99.16
2016-12-08T02:58:00.464Z,99.21
2016-12-08T02:58:17.162Z,99.26
2016-12-08T02:58:34.894Z,99.26
2016-12-08T02:58:51.577Z,99.3
2016-12-08T02:59:08.251Z,99.21
2016-12-08T02:59:24.949Z,99.11
2016-12-08T02:59:41.645Z,99.16
2016-12-08T02:59:58.420Z,99.3
2016-12-08T03:00:15.122Z,99.21
2016-12-08T03:00:31.832Z,99.35
2016-12-08T03:00:48.550Z,99.4
2016-12-08T03:01:05.243Z,99.21
2016-12-08T03:01:21.925Z,99.16
2016-12-08T03:01:38.620Z,99.21
2016-12-08T03:01:55.304Z,99.02
2016-12-08T03:02:11.964Z,99.4
2016-12-08T03:02:28.679Z,99.21
2016-12-08T03:02:45.392Z,99.26
2016-12-08T03:03:02.080Z,99.06
2016-12-08T03:03:18.762Z,98.97
2016-12-08T03:03:35.463Z,99.26
2016-12-08T03:03:52.165Z,99.35
2016-12-08T03:04:08.831Z,99.26
2016-12-08T03:04:25.520Z,99.16
2016-12-08T03:04:42.218Z,99.06
2016-12-08T03:04:58.926Z,98.87
2016-12-08T03:05:16.150Z,99.35
2016-12-08T03:05:32.890Z,99.16
2016-12-08T03:05:49.575Z,99.35
2016-12-08T03:06:06.255Z,99.44
2016-12-08T03:06:22.950Z,99.35
2016-12-08T03:06:39.611Z,98.87
2016-12-08T03:06:56.304Z,99.35
2016-12-08T03:07:12.996Z,99.06
2016-12-08T03:07:29.686Z,99.26
2016-12-08T03:07:46.374Z,98.97
2016-12-08T03:08:03.058Z,99.26
2016-12-08T03:08:19.746Z,99.35
2016-12-08T03:08:36.445Z,99.26
2016-12-08T03:08:53.132Z,99.16
2016-12-08T03:09:10.307Z,99.35
2016-12-08T03:09:27.021Z,99.06
2016-12-08T03:09:43.708Z,99.16
2016-12-08T03:10:00.367Z,99.16
2016-12-08T03:10:17.038Z,99.16
2016-12-08T03:10:33.718Z,99.16
2016-12-08T03:10:50.415Z,98.97
2016-12-08T03:11:07.607Z,98.77
2016-12-08T03:11:24.319Z,99.35
2016-12-08T03:11:41.020Z,99.35
2016-12-08T03:11:57.692Z,99.06
2016-12-08T03:12:14.367Z,99.35
2016-12-08T03:12:31.058Z,99.35
2016-12-08T03:12:47.749Z,99.35
2016-12-08T03:13:04.459Z,99.35
2016-12-08T03:13:21.145Z,98.77
2016-12-08T03:13:37.819Z,98.82
2016-12-08T03:13:54.500Z,98.68
2016-12-08T03:14:11.212Z,98.97
2016-12-08T03:14:27.892Z,98.87
2016-12-08T03:14:44.588Z,98.77
2016-12-08T03:15:01.288Z,98.87
2016-12-08T03:15:17.966Z,98.97
2016-12-08T03:15:34.635Z,98.97
2016-12-08T03:15:51.324Z,98.97
2016-12-08T03:16:07.998Z,98.77
2016-12-08T03:16:24.682Z,98.87
2016-12-08T03:16:41.402Z,98.97
2016-12-08T03:16:58.070Z,98.97
2016-12-08T03:17:14.793Z,98.77
2016-12-08T03:17:31.483Z,98.97
2016-12-08T03:17:48.150Z,98.77
2016-12-08T03:18:04.839Z,98.77
2016-12-08T03:18:21.517Z,98.87
2016-12-08T03:18:38.220Z,98.77
2016-12-08T03:18:54.917Z,99.06
2016-12-08T03:19:11.615Z,98.87
2016-12-08T03:19:28.310Z,98.87
2016-12-08T03:19:44.986Z,98.97
2016-12-08T03:20:01.685Z,98.97
2016-12-08T03:20:18.355Z,98.87
2016-12-08T03:20:35.017Z,98.77
2016-12-08T03:20:51.721Z,98.87
2016-12-08T03:21:08.404Z,98.77
2016-12-08T03:21:25.104Z,99.16
2016-12-08T03:21:41.810Z,98.77
2016-12-08T03:21:58.498Z,98.77
2016-12-08T03:22:15.174Z,98.87
2016-12-08T03:22:31.848Z,98.87
2016-12-08T03:22:48.537Z,98.68
2016-12-08T03:23:05.219Z,98.77
2016-12-08T03:23:21.908Z,98.68
2016-12-08T03:23:38.583Z,98.97
2016-12-08T03:23:55.254Z,98.87
2016-12-08T03:24:11.976Z,98.77
2016-12-08T03:24:28.683Z,98.87
2016-12-08T03:24:45.369Z,98.97
2016-12-08T03:25:02.051Z,98.87
2016-12-08T03:25:18.746Z,98.77
2016-12-08T03:25:35.414Z,98.87
2016-12-08T03:25:52.128Z,98.87
2016-12-08T03:26:08.815Z,98.77
2016-12-08T03:26:25.516Z,98.68
2016-12-08T03:26:42.193Z,98.97
2016-12-08T03:26:58.883Z,98.68
2016-12-08T03:27:15.567Z,98.77
2016-12-08T03:27:32.263Z,98.77
2016-12-08T03:27:49.473Z,98.77
2016-12-08T03:28:06.689Z,98.77
2016-12-08T03:28:23.355Z,98.97
2016-12-08T03:28:40.041Z,98.77
2016-12-08T03:28:56.713Z,99.16
2016-12-08T03:29:13.368Z,98.97
2016-12-08T03:29:30.058Z,98.77
2016-12-08T03:29:46.754Z,98.97
2016-12-08T03:30:03.966Z,98.87
2016-12-08T03:30:20.652Z,98.77
2016-12-08T03:30:37.335Z,98.97
2016-12-08T03:30:54.013Z,98.77
2016-12-08T03:31:10.694Z,98.97
2016-12-08T03:31:27.393Z,98.77
2016-12-08T03:31:44.093Z,98.87
2016-12-08T03:32:00.779Z,99.16
2016-12-08T03:32:17.493Z,98.87
2016-12-08T03:32:34.185Z,98.97
2016-12-08T03:32:50.862Z,99.06
2016-12-08T03:33:07.541Z,99.16
2016-12-08T03:33:24.217Z,98.77
2016-12-08T03:33:40.932Z,98.97
2016-12-08T03:33:57.597Z,98.77
2016-12-08T03:34:14.290Z,98.87
2016-12-08T03:34:30.958Z,98.68
2016-12-08T03:34:47.632Z,98.77
2016-12-08T03:35:04.335Z,98.68
2016-12-08T03:35:21.031Z,98.97
2016-12-08T03:35:37.724Z,98.97
2016-12-08T03:35:54.400Z,98.77
2016-12-08T03:36:11.068Z,98.68
2016-12-08T03:36:27.848Z,98.92